createdAt,value
2018-08-22T00:00:10.956Z,1.20
2018-08-22T00:03:15.230Z,0.90
2018-08-22T00:06:19.500Z,1.33
2018-08-22T00:09:23.773Z,1.13
2018-08-22T00:12:28.033Z,1.57
2018-08-22T00:15:32.317Z,1.07
2018-08-22T00:18:36.554Z,1.20
2018-08-22T00:21:40.805Z,1.10
2018-08-22T00:24:45.052Z,1.10
2018-08-22T00:27:49.336Z,1.13
2018-08-22T00:30:53.599Z,0.90
2018-08-22T00:33:57.883Z,1.40
2018-08-22T00:37:02.173Z,1.10
2018-08-22T00:40:06.668Z,1.10
2018-08-22T00:43:11.142Z,1.10
2018-08-22T00:46:15.452Z,0.77
2018-08-22T00:49:19.763Z,0.87
2018-08-22T00:52:24.152Z,1.10
2018-08-22T00:55:28.449Z,0.83
2018-08-22T00:58:32.762Z,1.17
2018-08-22T01:01:37.011Z,1.10
2018-08-22T01:04:41.265Z,0.90
2018-08-22T01:07:45.548Z,1.63
2018-08-22T01:10:49.806Z,0.60
2018-08-22T01:13:54.080Z,1.10
2018-08-22T01:16:58.411Z,0.90
2018-08-22T01:20:02.668Z,0.80
2018-08-22T01:23:06.564Z,0.80
2018-08-22T01:26:10.844Z,0.70
2018-08-22T01:29:15.105Z,0.90
2018-08-22T01:32:19.378Z,0.93
2018-08-22T01:35:23.629Z,1.03
2018-08-22T01:38:27.939Z,0.87
2018-08-22T01:41:32.180Z,1.33
2018-08-22T01:44:36.448Z,1.03
2018-08-22T01:47:40.757Z,1.43
2018-08-22T01:50:45.051Z,0.80
2018-08-22T01:53:49.291Z,0.97
2018-08-22T01:56:54.159Z,0.90
2018-08-22T01:59:58.506Z,1.00
2018-08-22T02:03:02.760Z,1.40
2018-08-22T02:06:07.018Z,1.17
2018-08-22T02:09:12.520Z,1.07
2018-08-22T02:12:16.783Z,1.00
2018-08-22T02:15:21.052Z,1.03
2018-08-22T02:18:25.318Z,1.00
2018-08-22T02:21:29.577Z,0.97
2018-08-22T02:24:33.832Z,1.33
2018-08-22T02:27:38.107Z,1.10
2018-08-22T02:30:42.394Z,0.70
2018-08-22T02:33:46.706Z,1.10
2018-08-22T02:36:51.116Z,1.10
2018-08-22T02:39:55.374Z,1.00
2018-08-22T02:42:59.675Z,0.83
2018-08-22T02:46:03.929Z,1.13
2018-08-22T02:49:12.311Z,0.90
2018-08-22T02:52:16.608Z,0.90
2018-08-22T02:55:20.856Z,1.00
2018-08-22T02:58:25.117Z,1.30
2018-08-22T03:01:29.366Z,1.20
2018-08-22T03:04:33.649Z,1.10
2018-08-22T03:07:37.937Z,1.10
2018-08-22T03:10:42.184Z,1.10
2018-08-22T03:13:46.480Z,0.77
2018-08-22T03:16:50.778Z,0.83
2018-08-22T03:19:55.129Z,0.90
2018-08-22T03:22:59.661Z,0.80
2018-08-22T03:26:03.962Z,1.00
2018-08-22T03:29:08.496Z,1.20
2018-08-22T03:32:12.730Z,1.10
2018-08-22T03:35:17.012Z,0.87
2018-08-22T03:38:21.321Z,1.20
2018-08-22T03:41:27.404Z,1.00
2018-08-22T03:44:31.721Z,1.30
2018-08-22T03:47:35.965Z,1.10
2018-08-22T03:50:40.202Z,0.87
2018-08-22T03:53:44.992Z,1.00
2018-08-22T03:56:49.427Z,1.20
2018-08-22T03:59:53.783Z,1.00
2018-08-22T04:02:58.095Z,1.00
2018-08-22T04:06:02.425Z,1.20
2018-08-22T04:09:07.951Z,0.87
2018-08-22T04:12:12.313Z,1.07
2018-08-22T04:15:16.644Z,1.00
2018-08-22T04:18:20.999Z,1.20
2018-08-22T04:21:25.313Z,1.10
2018-08-22T04:24:29.790Z,1.17
2018-08-22T04:27:34.313Z,1.13
2018-08-22T04:30:38.729Z,0.87
2018-08-22T04:33:43.158Z,1.10
2018-08-22T04:36:47.472Z,1.20
2018-08-22T04:39:51.757Z,1.13
2018-08-22T04:42:56.089Z,1.20
2018-08-22T04:46:00.349Z,1.13
2018-08-22T04:49:05.314Z,1.23
2018-08-22T04:52:09.546Z,1.47
2018-08-22T04:55:13.853Z,1.20
2018-08-22T04:58:18.103Z,1.20
2018-08-22T05:01:22.353Z,1.03
2018-08-22T05:04:26.714Z,1.07
2018-08-22T05:07:30.969Z,1.83
2018-08-22T05:10:35.209Z,1.10
2018-08-22T05:13:39.463Z,1.03
2018-08-22T05:16:43.709Z,1.10
2018-08-22T05:19:47.952Z,1.17
2018-08-22T05:22:52.205Z,1.17
2018-08-22T05:25:56.453Z,1.27
2018-08-22T05:29:00.684Z,1.50
2018-08-22T05:32:04.917Z,1.00
2018-08-22T05:35:09.123Z,1.10
2018-08-22T05:38:13.373Z,1.10
2018-08-22T05:41:17.630Z,1.30
2018-08-22T05:44:21.970Z,1.00
2018-08-22T05:47:26.219Z,1.30
2018-08-22T05:50:30.482Z,1.30
2018-08-22T05:53:34.710Z,1.30
2018-08-22T05:56:38.933Z,1.97
2018-08-22T05:59:43.186Z,1.33
2018-08-22T06:02:47.461Z,1.30
2018-08-22T06:05:51.693Z,1.27
2018-08-22T06:08:55.950Z,1.23
2018-08-22T06:12:00.209Z,1.30
2018-08-22T06:15:04.653Z,1.30
2018-08-22T06:18:08.893Z,1.57
2018-08-22T06:21:13.141Z,1.47
2018-08-22T06:24:17.359Z,1.30
2018-08-22T06:27:21.657Z,1.07
2018-08-22T06:30:25.877Z,1.20
2018-08-22T06:33:30.116Z,1.10
2018-08-22T06:36:34.339Z,1.10
2018-08-22T06:39:38.619Z,1.17
2018-08-22T06:42:42.862Z,1.33
2018-08-22T06:45:47.137Z,1.20
2018-08-22T06:48:51.368Z,1.40
2018-08-22T06:51:55.625Z,1.37
2018-08-22T06:54:59.865Z,1.40
2018-08-22T06:58:04.114Z,1.20
2018-08-22T07:01:08.378Z,1.37
2018-08-22T07:04:12.581Z,1.60
2018-08-22T07:07:17.173Z,1.10
2018-08-22T07:10:21.556Z,1.40
2018-08-22T07:13:25.811Z,1.23
2018-08-22T07:16:30.032Z,1.20
2018-08-22T07:19:34.454Z,1.27
2018-08-22T07:22:38.690Z,1.20
2018-08-22T07:25:42.890Z,1.50
2018-08-22T07:28:47.151Z,1.17
2018-08-22T07:31:51.378Z,1.20
2018-08-22T07:34:55.655Z,1.10
2018-08-22T07:37:59.941Z,1.33
2018-08-22T07:41:04.181Z,1.10
2018-08-22T07:44:09.259Z,1.07
2018-08-22T07:47:13.557Z,0.90
2018-08-22T07:50:17.801Z,1.00
2018-08-22T07:53:22.056Z,1.30
2018-08-22T07:56:26.268Z,0.90
2018-08-22T07:59:30.481Z,1.10
2018-08-22T08:02:34.709Z,1.00
2018-08-22T08:05:38.940Z,1.07
2018-08-22T08:08:43.208Z,1.10
2018-08-22T08:11:47.420Z,1.37
2018-08-22T08:15:06.045Z,1.10
2018-08-22T08:18:10.786Z,1.43
2018-08-22T08:21:15.016Z,1.10
2018-08-22T08:24:19.241Z,1.00
2018-08-22T08:27:24.175Z,1.33
2018-08-22T08:30:28.408Z,1.10
2018-08-22T08:33:32.629Z,1.03
2018-08-22T08:36:36.879Z,1.13
2018-08-22T08:39:41.134Z,1.27
2018-08-22T08:42:45.393Z,1.20
2018-08-22T08:45:49.634Z,1.20
2018-08-22T08:48:53.886Z,1.37
2018-08-22T08:52:00.505Z,1.13
2018-08-22T08:55:04.736Z,1.10
2018-08-22T08:58:08.993Z,1.33
2018-08-22T09:01:13.234Z,1.40
2018-08-22T09:04:17.466Z,1.40
2018-08-22T09:07:21.665Z,1.60
2018-08-22T09:10:25.957Z,1.33
2018-08-22T09:13:30.189Z,1.80
2018-08-22T09:16:34.433Z,1.57
2018-08-22T09:19:38.669Z,1.20
2018-08-22T09:22:42.947Z,1.20
2018-08-22T09:25:47.165Z,1.20
2018-08-22T09:28:51.400Z,1.30
2018-08-22T09:31:55.638Z,1.40
2018-08-22T09:34:59.919Z,1.50
2018-08-22T09:38:04.152Z,1.20
2018-08-22T09:41:08.381Z,1.23
2018-08-22T09:44:12.688Z,1.30
2018-08-22T09:47:16.928Z,1.20
2018-08-22T09:50:21.180Z,1.63
2018-08-22T09:53:25.512Z,1.77
2018-08-22T09:56:29.775Z,1.23
2018-08-22T09:59:34.865Z,1.67
2018-08-22T10:02:39.098Z,1.33
2018-08-22T10:05:43.341Z,1.30
2018-08-22T10:08:47.605Z,1.20
2018-08-22T10:11:51.902Z,1.37
2018-08-22T10:14:56.084Z,1.30
2018-08-22T10:18:00.346Z,1.10
2018-08-22T10:21:04.600Z,1.17
2018-08-22T10:24:08.837Z,1.17
2018-08-22T10:27:13.088Z,1.67
2018-08-22T10:30:17.336Z,1.23
2018-08-22T10:33:21.584Z,0.90
2018-08-22T10:36:25.908Z,1.20
2018-08-22T10:39:30.231Z,1.60
2018-08-22T10:42:34.444Z,1.23
2018-08-22T10:45:38.672Z,1.13
2018-08-22T10:48:42.926Z,1.40
2018-08-22T10:51:47.181Z,1.37
2018-08-22T10:54:51.444Z,1.10
2018-08-22T10:57:55.666Z,0.97
2018-08-22T11:01:00.402Z,1.13
2018-08-22T11:04:04.662Z,1.00
2018-08-22T11:07:08.908Z,1.00
2018-08-22T11:10:13.150Z,0.93
2018-08-22T11:13:17.357Z,1.53
2018-08-22T11:16:21.578Z,0.97
2018-08-22T11:19:25.813Z,1.30
2018-08-22T11:22:47.053Z,1.03
2018-08-22T11:26:08.437Z,1.60
2018-08-22T11:29:29.637Z,1.30
2018-08-22T11:32:50.837Z,1.17
2018-08-22T11:35:53.590Z,1.20
2018-08-22T11:38:57.871Z,1.40
2018-08-22T11:42:02.490Z,1.40
2018-08-22T11:45:06.758Z,1.40
2018-08-22T11:48:11.029Z,1.00
2018-08-22T11:51:15.510Z,1.00
2018-08-22T11:54:19.797Z,1.40
2018-08-22T11:57:24.091Z,1.33
2018-08-22T12:00:28.411Z,1.30
2018-08-22T12:03:32.929Z,1.10
2018-08-22T12:06:37.278Z,1.10
2018-08-22T12:09:41.556Z,1.17
2018-08-22T12:12:45.931Z,1.10
2018-08-22T12:15:50.201Z,1.37
2018-08-22T12:18:54.436Z,0.90
2018-08-22T12:21:58.678Z,1.20
2018-08-22T12:25:02.917Z,1.00
2018-08-22T12:28:07.253Z,1.03
2018-08-22T12:31:11.530Z,1.33
2018-08-22T12:34:15.744Z,1.00
2018-08-22T12:37:20.000Z,1.47
2018-08-22T12:40:24.217Z,1.03
2018-08-22T12:43:28.449Z,1.13
2018-08-22T12:46:32.686Z,1.00
2018-08-22T12:49:36.941Z,1.20
2018-08-22T12:52:41.195Z,1.10
2018-08-22T12:55:45.436Z,1.13
2018-08-22T12:58:49.669Z,1.40
2018-08-22T13:01:53.917Z,1.27
2018-08-22T13:04:58.154Z,1.10
2018-08-22T13:08:02.434Z,1.40
2018-08-22T13:11:06.700Z,1.30
2018-08-22T13:14:10.929Z,1.30
2018-08-22T13:17:15.161Z,1.20
2018-08-22T13:20:19.413Z,1.60
2018-08-22T13:23:23.710Z,1.83
2018-08-22T13:26:27.953Z,1.47
2018-08-22T13:29:32.189Z,1.47
2018-08-22T13:32:36.417Z,1.60
2018-08-22T13:35:40.645Z,1.50
2018-08-22T13:38:44.903Z,1.30
2018-08-22T13:41:49.141Z,1.50
2018-08-22T13:44:54.580Z,1.63
2018-08-22T13:47:59.432Z,1.30
2018-08-22T13:51:03.756Z,1.37
2018-08-22T13:54:08.017Z,1.27
2018-08-22T13:57:12.310Z,1.53
2018-08-22T14:00:16.619Z,1.20
2018-08-22T14:03:20.922Z,1.43
2018-08-22T14:06:25.157Z,1.30
2018-08-22T14:09:29.446Z,1.50
2018-08-22T14:12:33.813Z,1.50
2018-08-22T14:15:38.145Z,1.37
2018-08-22T14:18:42.598Z,1.50
2018-08-22T14:21:46.811Z,1.40
2018-08-22T14:24:51.057Z,1.50
2018-08-22T14:27:55.292Z,1.20
2018-08-22T14:30:59.530Z,1.67
2018-08-22T14:34:03.766Z,1.50
2018-08-22T14:37:08.013Z,1.50
2018-08-22T14:40:12.238Z,1.63
2018-08-22T14:43:16.480Z,1.60
2018-08-22T14:46:20.712Z,1.60
2018-08-22T14:49:24.937Z,1.60
2018-08-22T14:52:29.219Z,1.70
2018-08-22T14:55:33.566Z,2.03
2018-08-22T14:58:37.869Z,2.20
2018-08-22T15:01:42.190Z,2.20
2018-08-22T15:04:46.474Z,1.97
2018-08-22T15:07:50.688Z,1.97
2018-08-22T15:10:54.948Z,1.87
2018-08-22T15:13:59.191Z,1.60
2018-08-22T15:17:03.466Z,1.90
2018-08-22T15:20:07.729Z,2.40
2018-08-22T15:23:12.073Z,2.40
2018-08-22T15:26:16.362Z,2.50
2018-08-22T15:29:20.625Z,2.43
2018-08-22T15:32:25.807Z,2.20
2018-08-22T15:35:30.101Z,2.17
2018-08-22T15:38:34.357Z,2.40
2018-08-22T15:41:38.617Z,2.10
2018-08-22T15:44:42.994Z,2.27
2018-08-22T15:47:47.270Z,2.47
2018-08-22T15:50:51.524Z,2.43
2018-08-22T15:54:14.170Z,2.30
2018-08-22T15:57:18.417Z,2.20
2018-08-22T16:00:35.602Z,2.13
2018-08-22T16:03:39.844Z,2.23
2018-08-22T16:06:44.221Z,2.20
2018-08-22T16:09:49.865Z,1.97
2018-08-22T16:12:54.318Z,2.53
2018-08-22T16:16:01.185Z,2.40
2018-08-22T16:19:05.492Z,2.60
2018-08-22T16:22:09.725Z,2.90
2018-08-22T16:25:13.997Z,2.43
2018-08-22T16:28:18.341Z,2.73
2018-08-22T16:31:25.033Z,2.00
2018-08-22T16:34:29.273Z,1.87
2018-08-22T16:37:33.500Z,2.23
2018-08-22T16:40:38.937Z,2.27
2018-08-22T16:43:44.677Z,2.73
2018-08-22T16:46:48.911Z,2.10
2018-08-22T16:49:53.129Z,2.70
2018-08-22T16:52:57.337Z,2.50
2018-08-22T16:56:01.623Z,2.50
2018-08-22T16:59:11.198Z,2.43
2018-08-22T17:02:15.405Z,2.20
2018-08-22T17:05:19.621Z,2.37
2018-08-22T17:08:23.905Z,2.10
2018-08-22T17:11:28.133Z,2.43
2018-08-22T17:14:32.473Z,2.60
2018-08-22T17:17:36.766Z,2.60
2018-08-22T17:20:41.241Z,2.40
2018-08-22T17:23:46.001Z,2.30
2018-08-22T17:26:50.420Z,2.60
2018-08-22T17:29:54.783Z,2.40
2018-08-22T17:32:59.114Z,2.30
2018-08-22T17:36:03.377Z,2.77
2018-08-22T17:39:08.232Z,2.27
2018-08-22T17:42:12.572Z,2.20
2018-08-22T17:45:33.437Z,2.93
2018-08-22T17:48:37.661Z,2.10
2018-08-22T17:52:02.209Z,2.63
2018-08-22T17:55:06.455Z,2.80
2018-08-22T17:58:10.705Z,2.67
2018-08-22T18:01:14.974Z,2.87
2018-08-22T18:04:19.250Z,4.33
2018-08-22T18:07:23.543Z,3.70
2018-08-22T18:10:27.789Z,4.20
2018-08-22T18:13:32.022Z,3.70
2018-08-22T18:16:36.241Z,3.57
2018-08-22T18:19:40.615Z,4.43
2018-08-22T18:22:44.922Z,4.30
2018-08-22T18:25:54.353Z,5.07
2018-08-22T18:28:58.584Z,5.20
2018-08-22T18:32:02.805Z,5.13
2018-08-22T18:35:11.981Z,5.10
2018-08-22T18:38:16.228Z,4.93
2018-08-22T18:41:20.469Z,4.87
2018-08-22T18:44:24.738Z,5.53
2018-08-22T18:47:28.973Z,5.67
2018-08-22T18:50:33.205Z,5.53
2018-08-22T18:53:37.453Z,5.80
2018-08-22T18:56:41.706Z,5.83
2018-08-22T18:59:45.957Z,5.43
2018-08-22T19:02:53.060Z,6.00
2018-08-22T19:05:57.298Z,6.33
2018-08-22T19:09:01.591Z,6.20
2018-08-22T19:12:05.878Z,6.67
2018-08-22T19:15:10.117Z,7.50
2018-08-22T19:18:14.384Z,7.27
2018-08-22T19:21:18.599Z,7.10
2018-08-22T19:24:22.864Z,7.60
2018-08-22T19:27:27.042Z,7.27
2018-08-22T19:30:31.837Z,7.47
2018-08-22T19:33:36.101Z,8.03
2018-08-22T19:36:40.333Z,7.93
2018-08-22T19:40:01.679Z,7.73
2018-08-22T19:43:05.957Z,8.37
2018-08-22T19:46:10.228Z,7.90
2018-08-22T19:49:14.479Z,8.33
2018-08-22T19:52:18.735Z,8.37
2018-08-22T19:55:22.981Z,9.03
2018-08-22T19:58:34.372Z,8.43
2018-08-22T20:01:38.732Z,8.97
2018-08-22T20:04:44.436Z,9.30
2018-08-22T20:07:48.596Z,9.83
2018-08-22T20:10:52.842Z,10.03
2018-08-22T20:14:00.579Z,11.77
2018-08-22T20:17:04.899Z,11.80
2018-08-22T20:20:10.748Z,13.07
2018-08-22T20:23:15.039Z,13.93
2018-08-22T20:26:19.250Z,14.27
2018-08-22T20:29:23.494Z,14.07
2018-08-22T20:32:30.534Z,14.53
2018-08-22T20:35:39.033Z,13.57
2018-08-22T20:38:43.274Z,14.13
2018-08-22T20:41:48.395Z,13.17
2018-08-22T20:44:52.657Z,14.40
2018-08-22T20:48:02.258Z,13.97
2018-08-22T20:51:06.531Z,13.97
2018-08-22T20:54:12.825Z,15.60
2018-08-22T20:57:17.045Z,17.03
2018-08-22T21:00:23.805Z,17.53
2018-08-22T21:03:28.041Z,18.40
2018-08-22T21:06:32.256Z,18.80
2018-08-22T21:09:36.500Z,19.97
2018-08-22T21:12:40.741Z,19.70
2018-08-22T21:15:44.972Z,20.37
2018-08-22T21:18:49.221Z,21.73
2018-08-22T21:21:53.486Z,23.23
2018-08-22T21:24:59.381Z,23.77
2018-08-22T21:28:03.557Z,22.40
2018-08-22T21:31:07.749Z,24.20
2018-08-22T21:34:17.307Z,24.57
2018-08-22T21:37:29.532Z,22.27
2018-08-22T21:40:34.686Z,23.53
2018-08-22T21:43:38.940Z,23.80
2018-08-22T21:46:43.164Z,24.00
2018-08-22T21:49:47.417Z,25.70
2018-08-22T21:52:54.345Z,24.10
2018-08-22T21:55:58.573Z,25.27
2018-08-22T21:59:02.817Z,24.23
2018-08-22T22:02:08.358Z,24.00
2018-08-22T22:05:12.880Z,24.03
2018-08-22T22:08:17.124Z,25.37
2018-08-22T22:11:21.385Z,24.87
2018-08-22T22:14:27.506Z,25.33
2018-08-22T22:17:31.754Z,24.67
2018-08-22T22:20:35.992Z,25.93
2018-08-22T22:23:46.573Z,25.07
2018-08-22T22:26:50.801Z,25.67
2018-08-22T22:30:03.422Z,26.13
2018-08-22T22:33:07.654Z,26.57
2018-08-22T22:36:11.906Z,25.80
2018-08-22T22:39:34.148Z,25.73
2018-08-22T22:42:38.369Z,26.23
2018-08-22T22:45:42.613Z,27.10
2018-08-22T22:48:46.884Z,27.90
2018-08-22T22:51:51.121Z,26.07
2018-08-22T22:54:56.595Z,29.20
2018-08-22T22:58:00.909Z,28.07
2018-08-22T23:01:05.549Z,29.17
2018-08-22T23:04:09.844Z,29.57
2018-08-22T23:07:23.250Z,28.10
2018-08-22T23:10:27.511Z,29.00
2018-08-22T23:13:31.772Z,29.33
2018-08-22T23:16:37.017Z,29.00
2018-08-22T23:19:41.247Z,28.33
2018-08-22T23:22:45.985Z,25.90
2018-08-22T23:25:50.665Z,25.93
2018-08-22T23:28:54.925Z,24.73
2018-08-22T23:31:59.157Z,24.60
2018-08-22T23:35:21.119Z,22.30
2018-08-22T23:38:35.789Z,23.17
2018-08-22T23:41:40.044Z,21.83
2018-08-22T23:44:45.348Z,23.67
2018-08-22T23:47:49.632Z,23.63
2018-08-22T23:51:02.293Z,23.97
2018-08-22T23:54:06.541Z,25.03
2018-08-22T23:57:10.797Z,26.00
